sensor_id;sensor_type;location;lat;lon;timestamp;temperature;humidity
69626;DHT22;56847;51.984;5.088;2023-03-01T00:01:17;4.00;66.20
69626;DHT22;56847;51.984;5.088;2023-03-01T00:03:44;3.90;66.30
69626;DHT22;56847;51.984;5.088;2023-03-01T00:06:12;3.90;66.40
69626;DHT22;56847;51.984;5.088;2023-03-01T00:08:39;3.90;66.50
69626;DHT22;56847;51.984;5.088;2023-03-01T00:11:16;3.90;66.50
69626;DHT22;56847;51.984;5.088;2023-03-01T00:13:50;3.90;66.70
69626;DHT22;56847;51.984;5.088;2023-03-01T00:16:27;3.90;66.70
69626;DHT22;56847;51.984;5.088;2023-03-01T00:18:56;3.90;66.80
69626;DHT22;56847;51.984;5.088;2023-03-01T00:21:24;3.90;66.70
69626;DHT22;56847;51.984;5.088;2023-03-01T00:23:52;3.90;66.80
69626;DHT22;56847;51.984;5.088;2023-03-01T00:26:21;3.90;66.90
69626;DHT22;56847;51.984;5.088;2023-03-01T00:28:48;3.80;66.90
69626;DHT22;56847;51.984;5.088;2023-03-01T00:31:18;3.80;66.90
69626;DHT22;56847;51.984;5.088;2023-03-01T00:33:45;3.80;67.00
69626;DHT22;56847;51.984;5.088;2023-03-01T00:36:15;3.80;67.00
69626;DHT22;56847;51.984;5.088;2023-03-01T00:38:44;3.80;67.00
69626;DHT22;56847;51.984;5.088;2023-03-01T00:41:14;3.80;66.90
69626;DHT22;56847;51.984;5.088;2023-03-01T00:43:41;3.80;66.90
69626;DHT22;56847;51.984;5.088;2023-03-01T00:46:18;3.80;67.00
69626;DHT22;56847;51.984;5.088;2023-03-01T00:48:46;3.70;67.00
69626;DHT22;56847;51.984;5.088;2023-03-01T00:51:18;3.70;67.00
69626;DHT22;56847;51.984;5.088;2023-03-01T00:53:46;3.70;67.10
69626;DHT22;56847;51.984;5.088;2023-03-01T00:56:14;3.60;67.30
69626;DHT22;56847;51.984;5.088;2023-03-01T00:58:43;3.60;67.40
69626;DHT22;56847;51.984;5.088;2023-03-01T01:01:32;3.60;67.50
69626;DHT22;56847;51.984;5.088;2023-03-01T01:04:04;3.70;67.50
69626;DHT22;56847;51.984;5.088;2023-03-01T01:06:39;3.60;67.50
69626;DHT22;56847;51.984;5.088;2023-03-01T01:09:07;3.60;67.50
69626;DHT22;56847;51.984;5.088;2023-03-01T01:11:34;3.60;67.50
69626;DHT22;56847;51.984;5.088;2023-03-01T01:14:04;3.60;67.50
69626;DHT22;56847;51.984;5.088;2023-03-01T01:16:31;3.60;67.50
69626;DHT22;56847;51.984;5.088;2023-03-01T01:19:00;3.60;67.50
69626;DHT22;56847;51.984;5.088;2023-03-01T01:21:27;3.50;67.50
69626;DHT22;56847;51.984;5.088;2023-03-01T01:23:55;3.50;67.40
69626;DHT22;56847;51.984;5.088;2023-03-01T01:26:25;3.50;67.60
69626;DHT22;56847;51.984;5.088;2023-03-01T01:28:52;3.50;67.60
69626;DHT22;56847;51.984;5.088;2023-03-01T01:31:20;3.40;67.60
69626;DHT22;56847;51.984;5.088;2023-03-01T01:33:51;3.40;67.70
69626;DHT22;56847;51.984;5.088;2023-03-01T01:36:19;3.40;67.70
69626;DHT22;56847;51.984;5.088;2023-03-01T01:38:45;3.40;67.80
69626;DHT22;56847;51.984;5.088;2023-03-01T01:41:13;3.40;67.70
69626;DHT22;56847;51.984;5.088;2023-03-01T01:43:44;3.40;67.90
69626;DHT22;56847;51.984;5.088;2023-03-01T01:48:46;3.30;67.90
69626;DHT22;56847;51.984;5.088;2023-03-01T01:51:20;3.30;67.90
69626;DHT22;56847;51.984;5.088;2023-03-01T01:53:53;3.30;68.00
69626;DHT22;56847;51.984;5.088;2023-03-01T01:56:24;3.30;68.00
69626;DHT22;56847;51.984;5.088;2023-03-01T01:58:53;3.30;68.10
69626;DHT22;56847;51.984;5.088;2023-03-01T02:01:22;3.30;68.20
69626;DHT22;56847;51.984;5.088;2023-03-01T02:03:50;3.30;68.30
69626;DHT22;56847;51.984;5.088;2023-03-01T02:06:26;3.30;68.40
69626;DHT22;56847;51.984;5.088;2023-03-01T02:09:05;3.30;68.50
69626;DHT22;56847;51.984;5.088;2023-03-01T02:11:34;3.30;68.50
69626;DHT22;56847;51.984;5.088;2023-03-01T02:14:01;3.30;68.50
69626;DHT22;56847;51.984;5.088;2023-03-01T02:16:29;3.20;68.50
69626;DHT22;56847;51.984;5.088;2023-03-01T02:18:58;3.30;68.50
69626;DHT22;56847;51.984;5.088;2023-03-01T02:27:07;3.20;68.80
69626;DHT22;56847;51.984;5.088;2023-03-01T02:29:33;3.20;68.90
69626;DHT22;56847;51.984;5.088;2023-03-01T02:32:02;3.20;69.00
69626;DHT22;56847;51.984;5.088;2023-03-01T02:34:31;3.20;69.10
69626;DHT22;56847;51.984;5.088;2023-03-01T02:37:11;3.20;69.10
69626;DHT22;56847;51.984;5.088;2023-03-01T02:39:47;3.20;69.10
69626;DHT22;56847;51.984;5.088;2023-03-01T02:42:21;3.20;69.20
69626;DHT22;56847;51.984;5.088;2023-03-01T02:44:52;3.20;69.30
69626;DHT22;56847;51.984;5.088;2023-03-01T02:47:20;3.20;69.30
69626;DHT22;56847;51.984;5.088;2023-03-01T02:49:47;3.20;69.40
69626;DHT22;56847;51.984;5.088;2023-03-01T02:52:34;3.20;69.40
69626;DHT22;56847;51.984;5.088;2023-03-01T02:55:12;3.20;69.40
69626;DHT22;56847;51.984;5.088;2023-03-01T02:57:42;3.20;69.30
69626;DHT22;56847;51.984;5.088;2023-03-01T03:00:17;3.20;69.40
69626;DHT22;56847;51.984;5.088;2023-03-01T03:02:49;3.20;69.40
69626;DHT22;56847;51.984;5.088;2023-03-01T03:05:21;3.10;69.50
69626;DHT22;56847;51.984;5.088;2023-03-01T03:07:52;3.10;69.40
69626;DHT22;56847;51.984;5.088;2023-03-01T03:10:33;3.10;69.40
69626;DHT22;56847;51.984;5.088;2023-03-01T03:13:05;3.10;69.50
69626;DHT22;56847;51.984;5.088;2023-03-01T03:15:32;3.10;69.50
69626;DHT22;56847;51.984;5.088;2023-03-01T03:18:04;3.10;69.60
69626;DHT22;56847;51.984;5.088;2023-03-01T03:20:33;3.00;69.50
69626;DHT22;56847;51.984;5.088;2023-03-01T03:23:00;3.00;69.60
69626;DHT22;56847;51.984;5.088;2023-03-01T03:25:28;3.00;69.60
69626;DHT22;56847;51.984;5.088;2023-03-01T03:27:56;3.00;69.70
69626;DHT22;56847;51.984;5.088;2023-03-01T03:30:27;3.00;69.80
69626;DHT22;56847;51.984;5.088;2023-03-01T03:32:54;3.00;69.90
69626;DHT22;56847;51.984;5.088;2023-03-01T03:37:54;3.00;70.00
69626;DHT22;56847;51.984;5.088;2023-03-01T03:40:39;3.00;70.00
69626;DHT22;56847;51.984;5.088;2023-03-01T03:43:14;3.00;70.00
69626;DHT22;56847;51.984;5.088;2023-03-01T03:45:44;2.90;70.00
69626;DHT22;56847;51.984;5.088;2023-03-01T03:48:11;2.90;70.00
69626;DHT22;56847;51.984;5.088;2023-03-01T03:50:40;2.90;70.10
69626;DHT22;56847;51.984;5.088;2023-03-01T03:53:09;2.90;70.10
69626;DHT22;56847;51.984;5.088;2023-03-01T03:55:37;2.90;70.10
69626;DHT22;56847;51.984;5.088;2023-03-01T03:58:10;2.90;70.20
69626;DHT22;56847;51.984;5.088;2023-03-01T04:00:37;2.90;70.20
69626;DHT22;56847;51.984;5.088;2023-03-01T04:03:05;2.90;70.30
69626;DHT22;56847;51.984;5.088;2023-03-01T04:05:32;2.90;70.30
69626;DHT22;56847;51.984;5.088;2023-03-01T04:07:59;2.90;70.20
69626;DHT22;56847;51.984;5.088;2023-03-01T04:10:32;2.80;70.30
69626;DHT22;56847;51.984;5.088;2023-03-01T04:12:59;2.80;70.40
69626;DHT22;56847;51.984;5.088;2023-03-01T04:15:27;2.80;70.50
69626;DHT22;56847;51.984;5.088;2023-03-01T04:17:55;2.80;70.60
69626;DHT22;56847;51.984;5.088;2023-03-01T04:20:28;2.80;70.60
69626;DHT22;56847;51.984;5.088;2023-03-01T04:23:04;2.80;70.70
69626;DHT22;56847;51.984;5.088;2023-03-01T04:25:42;2.80;70.70
69626;DHT22;56847;51.984;5.088;2023-03-01T04:28:09;2.80;70.80
69626;DHT22;56847;51.984;5.088;2023-03-01T04:30:37;2.80;70.80
69626;DHT22;56847;51.984;5.088;2023-03-01T04:33:09;2.80;70.70
69626;DHT22;56847;51.984;5.088;2023-03-01T04:35:36;2.80;70.70
69626;DHT22;56847;51.984;5.088;2023-03-01T04:38:05;2.80;70.70
69626;DHT22;56847;51.984;5.088;2023-03-01T04:40:32;2.80;70.70
69626;DHT22;56847;51.984;5.088;2023-03-01T04:42:59;2.80;70.60
69626;DHT22;56847;51.984;5.088;2023-03-01T04:45:26;2.80;70.60
69626;DHT22;56847;51.984;5.088;2023-03-01T04:47:54;2.80;70.70
69626;DHT22;56847;51.984;5.088;2023-03-01T04:50:24;2.80;70.70
69626;DHT22;56847;51.984;5.088;2023-03-01T04:52:52;2.80;70.70
69626;DHT22;56847;51.984;5.088;2023-03-01T04:55:20;2.70;70.60
69626;DHT22;56847;51.984;5.088;2023-03-01T04:57:47;2.70;70.50
69626;DHT22;56847;51.984;5.088;2023-03-01T05:00:15;2.70;70.50
69626;DHT22;56847;51.984;5.088;2023-03-01T05:02:52;2.70;70.50
69626;DHT22;56847;51.984;5.088;2023-03-01T05:07:53;2.60;70.60
69626;DHT22;56847;51.984;5.088;2023-03-01T05:10:21;2.60;70.50
69626;DHT22;56847;51.984;5.088;2023-03-01T05:12:48;2.60;70.70
69626;DHT22;56847;51.984;5.088;2023-03-01T05:15:15;2.60;70.60
69626;DHT22;56847;51.984;5.088;2023-03-01T05:17:42;2.60;70.60
69626;DHT22;56847;51.984;5.088;2023-03-01T05:20:10;2.60;70.70
69626;DHT22;56847;51.984;5.088;2023-03-01T05:22:37;2.60;70.70
69626;DHT22;56847;51.984;5.088;2023-03-01T05:25:05;2.60;70.80
69626;DHT22;56847;51.984;5.088;2023-03-01T05:27:36;2.60;70.90
69626;DHT22;56847;51.984;5.088;2023-03-01T05:30:05;2.60;70.90
69626;DHT22;56847;51.984;5.088;2023-03-01T14:39:38;9.80;44.20
69626;DHT22;56847;51.984;5.088;2023-03-01T14:42:05;10.40;44.50
69626;DHT22;56847;51.984;5.088;2023-03-01T14:44:47;10.80;43.00
69626;DHT22;56847;51.984;5.088;2023-03-01T14:47:19;10.70;42.90
69626;DHT22;56847;51.984;5.088;2023-03-01T14:49:49;10.50;43.60
69626;DHT22;56847;51.984;5.088;2023-03-01T14:52:21;10.30;43.90
69626;DHT22;56847;51.984;5.088;2023-03-01T14:54:51;10.20;43.70
69626;DHT22;56847;51.984;5.088;2023-03-01T14:57:23;10.20;44.30
69626;DHT22;56847;51.984;5.088;2023-03-01T14:59:55;10.10;44.40
69626;DHT22;56847;51.984;5.088;2023-03-01T15:02:25;10.00;44.70
69626;DHT22;56847;51.984;5.088;2023-03-01T15:04:59;10.00;44.70
69626;DHT22;56847;51.984;5.088;2023-03-01T15:07:38;10.00;44.70
69626;DHT22;56847;51.984;5.088;2023-03-01T15:10:14;9.90;44.70
69626;DHT22;56847;51.984;5.088;2023-03-01T15:16:13;9.90;44.50
69626;DHT22;56847;51.984;5.088;2023-03-01T15:21:31;9.90;44.30
69626;DHT22;56847;51.984;5.088;2023-03-01T15:24:06;9.80;44.30
69626;DHT22;56847;51.984;5.088;2023-03-01T15:26:43;9.80;44.30
69626;DHT22;56847;51.984;5.088;2023-03-01T15:29:20;9.80;44.30
69626;DHT22;56847;51.984;5.088;2023-03-01T15:32:01;9.80;43.50
69626;DHT22;56847;51.984;5.088;2023-03-01T15:34:35;9.80;44.10
69626;DHT22;56847;51.984;5.088;2023-03-01T15:37:05;9.80;44.00
69626;DHT22;56847;51.984;5.088;2023-03-01T15:39:40;9.80;43.90
69626;DHT22;56847;51.984;5.088;2023-03-01T15:47:46;9.70;44.20
69626;DHT22;56847;51.984;5.088;2023-03-01T15:50:19;9.80;44.80
69626;DHT22;56847;51.984;5.088;2023-03-01T15:52:47;9.80;44.70
69626;DHT22;56847;51.984;5.088;2023-03-01T15:55:17;9.80;43.80
69626;DHT22;56847;51.984;5.088;2023-03-01T15:57:44;9.70;44.60
69626;DHT22;56847;51.984;5.088;2023-03-01T16:00:13;9.70;44.80
69626;DHT22;56847;51.984;5.088;2023-03-01T16:02:41;9.70;45.00
69626;DHT22;56847;51.984;5.088;2023-03-01T16:05:17;9.70;44.80
69626;DHT22;56847;51.984;5.088;2023-03-01T16:07:45;9.70;45.10
69626;DHT22;56847;51.984;5.088;2023-03-01T16:10:12;9.70;45.30
69626;DHT22;56847;51.984;5.088;2023-03-01T16:12:39;9.70;45.60
69626;DHT22;56847;51.984;5.088;2023-03-01T16:15:18;9.70;45.80
69626;DHT22;56847;51.984;5.088;2023-03-01T16:17:45;9.70;45.70
69626;DHT22;56847;51.984;5.088;2023-03-01T16:20:22;9.70;45.80
69626;DHT22;56847;51.984;5.088;2023-03-01T16:22:58;9.60;45.60
69626;DHT22;56847;51.984;5.088;2023-03-01T16:25:26;9.60;45.40
69626;DHT22;56847;51.984;5.088;2023-03-01T16:27:54;9.50;45.50
69626;DHT22;56847;51.984;5.088;2023-03-01T16:30:22;9.50;45.60
69626;DHT22;56847;51.984;5.088;2023-03-01T16:32:50;9.50;45.70
69626;DHT22;56847;51.984;5.088;2023-03-01T16:35:20;9.40;46.10
69626;DHT22;56847;51.984;5.088;2023-03-01T16:37:47;9.40;45.70
69626;DHT22;56847;51.984;5.088;2023-03-01T16:40:24;9.30;45.80
69626;DHT22;56847;51.984;5.088;2023-03-01T16:42:53;9.30;45.80
69626;DHT22;56847;51.984;5.088;2023-03-01T16:45:21;9.30;46.20
69626;DHT22;56847;51.984;5.088;2023-03-01T16:47:53;9.20;46.20
69626;DHT22;56847;51.984;5.088;2023-03-01T16:50:22;9.20;46.50
69626;DHT22;56847;51.984;5.088;2023-03-01T16:52:49;9.20;46.80
69626;DHT22;56847;51.984;5.088;2023-03-01T16:55:16;9.10;46.70
69626;DHT22;56847;51.984;5.088;2023-03-01T16:57:43;9.10;47.10
69626;DHT22;56847;51.984;5.088;2023-03-01T17:00:11;9.00;47.00
69626;DHT22;56847;51.984;5.088;2023-03-01T17:02:40;9.00;47.10
69626;DHT22;56847;51.984;5.088;2023-03-01T17:05:08;8.90;47.30
69626;DHT22;56847;51.984;5.088;2023-03-01T17:07:39;8.90;47.50
69626;DHT22;56847;51.984;5.088;2023-03-01T17:10:08;8.90;47.80
69626;DHT22;56847;51.984;5.088;2023-03-01T17:12:39;8.80;47.90
69626;DHT22;56847;51.984;5.088;2023-03-01T17:15:06;8.80;48.30
69626;DHT22;56847;51.984;5.088;2023-03-01T17:17:33;8.70;48.20
69626;DHT22;56847;51.984;5.088;2023-03-01T17:20:01;8.70;48.60
69626;DHT22;56847;51.984;5.088;2023-03-01T17:22:30;8.60;48.80
69626;DHT22;56847;51.984;5.088;2023-03-01T17:24:57;8.60;48.90
69626;DHT22;56847;51.984;5.088;2023-03-01T17:27:24;8.50;49.10
69626;DHT22;56847;51.984;5.088;2023-03-01T17:29:51;8.50;49.30
69626;DHT22;56847;51.984;5.088;2023-03-01T17:32:18;8.40;49.50
69626;DHT22;56847;51.984;5.088;2023-03-01T17:34:45;8.40;49.70
69626;DHT22;56847;51.984;5.088;2023-03-01T17:37:12;8.30;49.90
69626;DHT22;56847;51.984;5.088;2023-03-01T17:39:39;8.30;50.10
69626;DHT22;56847;51.984;5.088;2023-03-01T17:42:06;8.30;50.30
69626;DHT22;56847;51.984;5.088;2023-03-01T17:44:33;8.20;50.40
69626;DHT22;56847;51.984;5.088;2023-03-01T17:47:04;8.10;50.50
69626;DHT22;56847;51.984;5.088;2023-03-01T17:49:31;8.10;50.70
69626;DHT22;56847;51.984;5.088;2023-03-01T17:51:59;8.00;51.00
69626;DHT22;56847;51.984;5.088;2023-03-01T17:54:26;8.00;51.30
69626;DHT22;56847;51.984;5.088;2023-03-01T17:56:53;8.00;51.40
69626;DHT22;56847;51.984;5.088;2023-03-01T17:59:21;7.90;51.70
69626;DHT22;56847;51.984;5.088;2023-03-01T18:01:48;7.90;51.80
69626;DHT22;56847;51.984;5.088;2023-03-01T18:04:15;7.80;52.00
69626;DHT22;56847;51.984;5.088;2023-03-01T18:06:44;7.80;52.10
69626;DHT22;56847;51.984;5.088;2023-03-01T18:09:11;7.80;52.20
69626;DHT22;56847;51.984;5.088;2023-03-01T18:11:38;7.70;52.30
69626;DHT22;56847;51.984;5.088;2023-03-01T18:14:05;7.70;52.40
69626;DHT22;56847;51.984;5.088;2023-03-01T18:16:33;7.70;52.60
69626;DHT22;56847;51.984;5.088;2023-03-01T18:19:01;7.60;52.50
69626;DHT22;56847;51.984;5.088;2023-03-01T18:21:31;7.60;52.70
69626;DHT22;56847;51.984;5.088;2023-03-01T18:23:58;7.60;52.80
69626;DHT22;56847;51.984;5.088;2023-03-01T18:26:25;7.50;52.90
69626;DHT22;56847;51.984;5.088;2023-03-01T18:28:54;7.50;53.10
69626;DHT22;56847;51.984;5.088;2023-03-01T18:31:24;7.50;53.20
69626;DHT22;56847;51.984;5.088;2023-03-01T18:33:52;7.40;53.20
69626;DHT22;56847;51.984;5.088;2023-03-01T18:36:25;7.40;53.30
69626;DHT22;56847;51.984;5.088;2023-03-01T18:38:54;7.40;53.40
69626;DHT22;56847;51.984;5.088;2023-03-01T18:41:24;7.30;53.40
69626;DHT22;56847;51.984;5.088;2023-03-01T18:43:55;7.30;53.40
69626;DHT22;56847;51.984;5.088;2023-03-01T18:46:24;7.30;53.40
69626;DHT22;56847;51.984;5.088;2023-03-01T18:48:52;7.30;53.60
69626;DHT22;56847;51.984;5.088;2023-03-01T18:51:23;7.30;53.60
69626;DHT22;56847;51.984;5.088;2023-03-01T18:53:50;7.20;53.80
69626;DHT22;56847;51.984;5.088;2023-03-01T18:56:18;7.20;53.80
69626;DHT22;56847;51.984;5.088;2023-03-01T18:58:45;7.20;54.00
69626;DHT22;56847;51.984;5.088;2023-03-01T19:01:20;7.10;54.00
69626;DHT22;56847;51.984;5.088;2023-03-01T19:03:48;7.10;54.00
69626;DHT22;56847;51.984;5.088;2023-03-01T19:06:15;7.10;54.00
69626;DHT22;56847;51.984;5.088;2023-03-01T19:08:43;7.10;54.10
69626;DHT22;56847;51.984;5.088;2023-03-01T19:11:11;7.00;53.80
69626;DHT22;56847;51.984;5.088;2023-03-01T19:13:39;7.00;53.90
69626;DHT22;56847;51.984;5.088;2023-03-01T19:16:10;7.00;53.90
69626;DHT22;56847;51.984;5.088;2023-03-01T19:18:38;7.00;54.00
69626;DHT22;56847;51.984;5.088;2023-03-01T19:21:10;7.00;54.10
69626;DHT22;56847;51.984;5.088;2023-03-01T19:23:38;6.90;54.20
69626;DHT22;56847;51.984;5.088;2023-03-01T19:26:07;6.90;54.20
69626;DHT22;56847;51.984;5.088;2023-03-01T19:28:35;6.90;54.40
69626;DHT22;56847;51.984;5.088;2023-03-01T19:31:08;6.90;54.20
69626;DHT22;56847;51.984;5.088;2023-03-01T19:33:36;6.90;54.20
69626;DHT22;56847;51.984;5.088;2023-03-01T19:36:07;6.90;54.40
69626;DHT22;56847;51.984;5.088;2023-03-01T19:38:34;6.80;54.30
69626;DHT22;56847;51.984;5.088;2023-03-01T19:41:07;6.80;54.40
69626;DHT22;56847;51.984;5.088;2023-03-01T19:43:34;6.80;54.40
69626;DHT22;56847;51.984;5.088;2023-03-01T19:46:02;6.80;54.40
69626;DHT22;56847;51.984;5.088;2023-03-01T19:48:29;6.80;54.50
69626;DHT22;56847;51.984;5.088;2023-03-01T19:50:57;6.70;54.40
69626;DHT22;56847;51.984;5.088;2023-03-01T19:53:24;6.70;54.50
69626;DHT22;56847;51.984;5.088;2023-03-01T19:55:59;6.70;54.50
69626;DHT22;56847;51.984;5.088;2023-03-01T19:58:29;6.70;54.70
69626;DHT22;56847;51.984;5.088;2023-03-01T20:00:56;6.60;54.80
69626;DHT22;56847;51.984;5.088;2023-03-01T20:03:31;6.60;54.90
69626;DHT22;56847;51.984;5.088;2023-03-01T20:06:00;6.60;55.00
69626;DHT22;56847;51.984;5.088;2023-03-01T20:08:33;6.50;55.10
69626;DHT22;56847;51.984;5.088;2023-03-01T20:11:03;6.50;55.20
69626;DHT22;56847;51.984;5.088;2023-03-01T20:13:31;6.50;55.20
69626;DHT22;56847;51.984;5.088;2023-03-01T20:15:58;6.40;55.30
69626;DHT22;56847;51.984;5.088;2023-03-01T20:18:26;6.40;55.30
69626;DHT22;56847;51.984;5.088;2023-03-01T20:20:53;6.40;55.50
69626;DHT22;56847;51.984;5.088;2023-03-01T20:23:21;6.30;55.60
69626;DHT22;56847;51.984;5.088;2023-03-01T20:25:48;6.30;55.70
69626;DHT22;56847;51.984;5.088;2023-03-01T20:28:17;6.30;55.70
69626;DHT22;56847;51.984;5.088;2023-03-01T20:30:45;6.30;55.80
69626;DHT22;56847;51.984;5.088;2023-03-01T20:33:12;6.20;55.90
69626;DHT22;56847;51.984;5.088;2023-03-01T20:35:41;6.20;55.90
69626;DHT22;56847;51.984;5.088;2023-03-01T20:38:09;6.20;56.00
69626;DHT22;56847;51.984;5.088;2023-03-01T20:40:36;6.10;56.10
69626;DHT22;56847;51.984;5.088;2023-03-01T20:43:03;6.10;56.30
69626;DHT22;56847;51.984;5.088;2023-03-01T20:45:30;6.10;56.30
69626;DHT22;56847;51.984;5.088;2023-03-01T20:47:58;6.10;56.50
69626;DHT22;56847;51.984;5.088;2023-03-01T20:50:25;6.00;56.60
69626;DHT22;56847;51.984;5.088;2023-03-01T20:52:52;6.00;56.70
69626;DHT22;56847;51.984;5.088;2023-03-01T20:55:19;6.00;56.70
69626;DHT22;56847;51.984;5.088;2023-03-01T20:57:46;5.90;56.80
69626;DHT22;56847;51.984;5.088;2023-03-01T21:00:13;5.90;57.00
69626;DHT22;56847;51.984;5.088;2023-03-01T21:02:40;5.90;57.10
69626;DHT22;56847;51.984;5.088;2023-03-01T21:05:07;5.90;57.10
69626;DHT22;56847;51.984;5.088;2023-03-01T21:07:34;5.80;57.10
69626;DHT22;56847;51.984;5.088;2023-03-01T21:10:02;5.80;57.20
69626;DHT22;56847;51.984;5.088;2023-03-01T21:12:29;5.80;57.30
69626;DHT22;56847;51.984;5.088;2023-03-01T21:14:59;5.80;57.40
69626;DHT22;56847;51.984;5.088;2023-03-01T21:17:25;5.80;57.40
69626;DHT22;56847;51.984;5.088;2023-03-01T21:19:53;5.70;57.50
69626;DHT22;56847;51.984;5.088;2023-03-01T21:22:20;5.70;57.50
69626;DHT22;56847;51.984;5.088;2023-03-01T21:24:47;5.70;57.60
69626;DHT22;56847;51.984;5.088;2023-03-01T21:27:16;5.70;57.70
69626;DHT22;56847;51.984;5.088;2023-03-01T21:29:47;5.70;57.80
69626;DHT22;56847;51.984;5.088;2023-03-01T21:32:15;5.60;57.90
69626;DHT22;56847;51.984;5.088;2023-03-01T21:34:45;5.60;57.90
69626;DHT22;56847;51.984;5.088;2023-03-01T21:37:11;5.60;58.00
69626;DHT22;56847;51.984;5.088;2023-03-01T21:39:39;5.60;58.10
69626;DHT22;56847;51.984;5.088;2023-03-01T21:42:06;5.60;58.10
69626;DHT22;56847;51.984;5.088;2023-03-01T21:44:33;5.60;58.20
69626;DHT22;56847;51.984;5.088;2023-03-01T21:47:00;5.50;58.20
69626;DHT22;56847;51.984;5.088;2023-03-01T21:49:27;5.60;58.30
69626;DHT22;56847;51.984;5.088;2023-03-01T21:51:54;5.50;58.30
69626;DHT22;56847;51.984;5.088;2023-03-01T21:54:21;5.50;58.30
69626;DHT22;56847;51.984;5.088;2023-03-01T21:56:48;5.50;58.50
69626;DHT22;56847;51.984;5.088;2023-03-01T21:59:19;5.50;58.50
69626;DHT22;56847;51.984;5.088;2023-03-01T22:01:48;5.50;58.60
69626;DHT22;56847;51.984;5.088;2023-03-01T22:04:16;5.40;58.70
69626;DHT22;56847;51.984;5.088;2023-03-01T22:06:45;5.40;58.70
69626;DHT22;56847;51.984;5.088;2023-03-01T22:11:43;5.40;58.80
69626;DHT22;56847;51.984;5.088;2023-03-01T22:14:14;5.40;58.90
69626;DHT22;56847;51.984;5.088;2023-03-01T22:16:42;5.40;59.00
69626;DHT22;56847;51.984;5.088;2023-03-01T22:19:13;5.40;59.10
69626;DHT22;56847;51.984;5.088;2023-03-01T22:21:42;5.40;59.00
69626;DHT22;56847;51.984;5.088;2023-03-01T22:24:10;5.40;59.10
69626;DHT22;56847;51.984;5.088;2023-03-01T22:26:42;5.40;59.30
69626;DHT22;56847;51.984;5.088;2023-03-01T22:29:17;5.40;59.30
69626;DHT22;56847;51.984;5.088;2023-03-01T22:31:44;5.40;59.20
69626;DHT22;56847;51.984;5.088;2023-03-01T22:34:12;5.30;59.40
69626;DHT22;56847;51.984;5.088;2023-03-01T22:36:40;5.30;59.50
69626;DHT22;56847;51.984;5.088;2023-03-01T22:39:07;5.30;59.70
69626;DHT22;56847;51.984;5.088;2023-03-01T22:41:37;5.30;59.90
69626;DHT22;56847;51.984;5.088;2023-03-01T22:44:07;5.30;59.90
69626;DHT22;56847;51.984;5.088;2023-03-01T22:46:34;5.30;60.00
69626;DHT22;56847;51.984;5.088;2023-03-01T22:49:01;5.30;60.10
69626;DHT22;56847;51.984;5.088;2023-03-01T22:51:30;5.30;60.10
69626;DHT22;56847;51.984;5.088;2023-03-01T22:53:58;5.30;60.20
69626;DHT22;56847;51.984;5.088;2023-03-01T22:56:28;5.30;60.30
69626;DHT22;56847;51.984;5.088;2023-03-01T22:58:58;5.20;60.40
69626;DHT22;56847;51.984;5.088;2023-03-01T23:01:25;5.20;60.60
69626;DHT22;56847;51.984;5.088;2023-03-01T23:03:53;5.20;60.60
69626;DHT22;56847;51.984;5.088;2023-03-01T23:06:21;5.20;60.80
69626;DHT22;56847;51.984;5.088;2023-03-01T23:08:54;5.20;61.00
69626;DHT22;56847;51.984;5.088;2023-03-01T23:11:21;5.20;61.20
69626;DHT22;56847;51.984;5.088;2023-03-01T23:13:49;5.20;61.50
69626;DHT22;56847;51.984;5.088;2023-03-01T23:16:17;5.20;61.60
69626;DHT22;56847;51.984;5.088;2023-03-01T23:18:44;5.20;61.50
69626;DHT22;56847;51.984;5.088;2023-03-01T23:21:14;5.20;61.60
69626;DHT22;56847;51.984;5.088;2023-03-01T23:23:42;5.10;61.60
69626;DHT22;56847;51.984;5.088;2023-03-01T23:26:09;5.20;62.00
69626;DHT22;56847;51.984;5.088;2023-03-01T23:28:36;5.10;62.00
69626;DHT22;56847;51.984;5.088;2023-03-01T23:31:12;5.10;62.50
69626;DHT22;56847;51.984;5.088;2023-03-01T23:33:40;5.10;62.80
69626;DHT22;56847;51.984;5.088;2023-03-01T23:36:27;5.00;62.70
69626;DHT22;56847;51.984;5.088;2023-03-01T23:38:59;5.00;62.80
69626;DHT22;56847;51.984;5.088;2023-03-01T23:41:29;5.00;63.40
69626;DHT22;56847;51.984;5.088;2023-03-01T23:43:58;5.00;64.20
69626;DHT22;56847;51.984;5.088;2023-03-01T23:46:27;5.00;64.70
69626;DHT22;56847;51.984;5.088;2023-03-01T23:48:55;4.90;64.90
69626;DHT22;56847;51.984;5.088;2023-03-01T23:51:23;4.90;65.50
69626;DHT22;56847;51.984;5.088;2023-03-01T23:53:55;4.90;65.20
69626;DHT22;56847;51.984;5.088;2023-03-01T23:56:36;4.90;65.80
69626;DHT22;56847;51.984;5.088;2023-03-01T23:59:09;4.90;65.60
